Flight Track Log - Related Links

Times and Time Zones

All times are in EDT time to prevent confusion due to time zone crossing. See the SWA471 flight status page for this flight to view local times or setup timezone preferences in your user account.

Time Position Orientation Groundspeed Altitude Reporting Facility
EDT Latitude Longitude Course Direction KTS MPH feet Rate Location/Type
Sun 04:01:10 PM 42.9500 -71.4333 324° Northwest 158 182 900  Level KA90
Sun 04:02:04 PM 42.9833 -71.4667 324° Northwest 192 221 2,900 2,139 Climbing KA90
Sun 04:02:51 PM 43.0317 -71.4317 28° Northeast 240 276 4,500 1,626 Climbing Boston Center
Sun 04:03:51 PM 43.0392 -71.3492 83° East 263 303 5,800 2,000 Climbing Boston Center
Sun 04:04:51 PM 43.0464 -71.2497 84° East 263 303 8,500 2,550 Climbing Boston Center
Sun 04:05:51 PM 43.0578 -71.1386 82° East 280 322 10,900 1,900 Climbing Boston Center
Sun 04:06:51 PM 43.0750 -71.0075 80° East 320 368 12,300 2,000 Climbing Boston Center
Sun 04:07:51 PM 43.0092 -70.9097 133° Southeast 337 388 14,900 2,900 Climbing Boston Center
Sun 04:08:51 PM 42.8989 -70.9267 186° South 313 360 18,100 2,250 Climbing Boston Center
Sun 04:09:51 PM 42.8139 -70.9628 197° South 334 384 19,400 2,000 Climbing Boston Center
Sun 04:10:51 PM 42.7144 -71.0158 201° Southwest 354 407 22,100 2,231 Climbing Boston Center
Sun 04:11:52 PM 42.6150 -71.0661 200° South 377 434 23,900 1,318 Climbing Boston Center
Sun 04:13:03 PM 42.5411 -71.1581 223° Southwest 371 427 25,000 1,511 Climbing Boston Center
Sun 04:14:03 PM 42.4825 -71.3253 245° Southwest 384 442 27,200 2,100 Climbing Boston Center
Sun 04:15:03 PM 42.4397 -71.4414 244° Southwest 370 426 29,200 1,600 Climbing Boston Center
Sun 04:16:03 PM 42.4008 -71.5347 241° Southwest 364 419 30,400 1,400 Climbing Boston Center
Sun 04:17:03 PM 42.3497 -71.6564 240° Southwest 359 413 32,000 800 Climbing Boston Center
Sun 04:18:03 PM 42.3047 -71.7719 242° Southwest 354 407 32,000  Level Boston Center
Sun 04:19:03 PM 42.2594 -71.8931 243° Southwest 359 413 32,000  Level Boston Center
Sun 04:20:03 PM 42.2119 -72.0139 242° Southwest 359 413 32,000  Level Boston Center
Sun 04:21:03 PM 42.1625 -72.1319 241° Southwest 364 419 32,000  Level Boston Center
Sun 04:22:03 PM 42.1106 -72.2639 242° Southwest 364 419 32,000  Level Boston Center
Sun 04:23:03 PM 42.0628 -72.3842 242° Southwest 364 419 32,000  Level Boston Center
Sun 04:24:03 PM 42.0147 -72.5044 242° Southwest 369 425 32,000  Level Boston Center
Sun 04:25:03 PM 41.9689 -72.6217 242° Southwest 369 425 32,000  Level Boston Center
Sun 04:26:03 PM 41.9103 -72.7303 234° Southwest 364 419 32,000  Level Boston Center
Sun 04:27:03 PM 41.8411 -72.8247 226° Southwest 364 419 32,000  Level Boston Center
Sun 04:28:03 PM 41.7719 -72.9272 228° Southwest 369 425 32,000  Level Boston Center
Sun 04:29:03 PM 41.7775 -73.0608 273° West 338 389 32,000  Level Boston Center
Sun 04:30:03 PM 41.7811 -73.1944 272° West 344 396 32,000  Level Boston Center
Sun 04:31:03 PM 41.6972 -73.2686 213° Southwest 318 366 32,000  Level Boston Center
Sun 04:32:03 PM 41.6069 -73.3369 210° Southwest 336 387 32,000  Level Boston Center
Sun 04:34:27 PM 41.3967 -73.4953 209° Southwest 376 433 32,000  Level New York Center
Sun 04:35:28 PM 41.3056 -73.5633 209° Southwest 376 433 32,000  Level New York Center
Sun 04:36:29 PM 41.2367 -73.6572 226° Southwest 371 427 32,000  Level New York Center
Sun 04:37:27 PM 41.1758 -73.7619 232° Southwest 359 413 32,000  Level New York Center
Sun 04:38:27 PM 41.1147 -73.8639 232° Southwest 366 421 32,000 -198 Level New York Center
Sun 04:39:28 PM 41.0558 -73.9658 233° Southwest 361 415 31,600 -694 Descending New York Center
Sun 04:40:28 PM 40.9947 -74.0672 231° Southwest 361 415 30,600 -992 Descending New York Center
Sun 04:41:29 PM 40.9336 -74.1714 232° Southwest 361 415 29,600 -992 Descending New York Center
Sun 04:42:29 PM 40.8661 -74.2722 229° Southwest 366 421 28,600 -1,000 Descending New York Center
Sun 04:43:29 PM 40.8047 -74.3733 231° Southwest 366 421 27,600 -934 Descending New York Center
Sun 04:44:31 PM 40.7450 -74.4853 235° Southwest 366 421 26,700 -857 Descending New York Center
Sun 04:45:28 PM 40.7178 -74.6153 255° West 361 415 25,900 -667 Descending New York Center
Sun 04:46:28 PM 40.6883 -74.7503 254° West 374 430 25,400 -756 Descending New York Center
Sun 04:47:27 PM 40.6364 -74.8703 240° Southwest 379 436 24,400 -1,008 Descending New York Center
Sun 04:48:27 PM 40.5781 -74.9844 236° Southwest 386 444 23,400 -984 Descending New York Center
Sun 04:49:29 PM 40.5117 -75.0950 232° Southwest 391 450 22,400 -1,000 Descending New York Center
Sun 04:50:27 PM 40.4450 -75.2053 232° Southwest 391 450 21,400 -1,008 Descending New York Center
Sun 04:51:28 PM 40.3681 -75.3094 226° Southwest 396 456 20,400 -942 Descending New York Center
Sun 04:52:28 PM 40.2756 -75.3850 212° Southwest 390 449 19,500 -885 Descending New York Center
Sun 04:53:30 PM 40.1875 -75.4525 210° Southwest 405 466 18,600 -756 Descending New York Center
Sun 04:54:27 PM 40.0839 -75.5378 212° Southwest 412 474 18,000 -308 Descending New York Center
Sun 04:55:27 PM 40.0019 -75.6025 211° Southwest 401 461 18,000  Level New York Center
Sun 04:56:29 PM 39.9044 -75.6933 216° Southwest 401 461 18,000 -293 Level New York Center
Sun 04:57:30 PM 39.8972 -75.8172 266° West 334 384 17,400 -814 Descending New York Center
Sun 04:58:27 PM 39.9033 -75.9150 275° West 312 359 16,400 -1,105 Descending New York Center
Sun 05:00:40 PM 39.9167 -76.1500 274° West 273 314 13,900 -1,052 Descending Potomac TRACON
Sun 05:01:41 PM 39.9167 -76.2500 270° West 274 315 13,000 -893 Descending Potomac TRACON
Sun 05:02:41 PM 39.8500 -76.2833 201° Southwest 286 329 12,100 -500 Descending Potomac TRACON
Sun 05:03:41 PM 39.7667 -76.2833 180° South 278 320 12,000 -520 Descending Potomac TRACON
Sun 05:04:48 PM 39.6833 -76.3000 189° South 283 326 11,000 -898 Descending Potomac TRACON
Sun 05:05:48 PM 39.6167 -76.3000 180° South 276 318 10,100 -950 Descending Potomac TRACON
Sun 05:06:48 PM 39.5667 -76.3833 232° Southwest 269 310 9,100 -992 Descending Potomac TRACON
Sun 05:07:49 PM 39.5500 -76.4667 255° West 271 312 8,100 -992 Descending Potomac TRACON
Sun 05:08:49 PM 39.5333 -76.5667 258° West 270 311 7,100 -1,000 Descending Potomac TRACON
Sun 05:09:49 PM 39.5000 -76.6333 237° Southwest 259 298 6,100 -991 Descending Potomac TRACON
Sun 05:10:44 PM 39.4667 -76.7167 243° Southwest 261 300 5,200 -744 Descending Potomac TRACON
Sun 05:11:50 PM 39.4500 -76.8167 258° West 262 302 4,600 -545 Descending Potomac TRACON
Sun 05:12:45 PM 39.4167 -76.8833 237° Southwest 250 288 4,100 -365 Descending Potomac TRACON
Sun 05:13:45 PM 39.3833 -76.9500 237° Southwest 229 264 3,900 -100 Descending Potomac TRACON
Sun 05:14:45 PM 39.3167 -76.9500 180° South 221 254 3,900 -149 Level Potomac TRACON
Sun 05:15:46 PM 39.2667 -76.9167 153° Southeast 219 252 3,600 -567 Descending Potomac TRACON
Sun 05:16:52 PM 39.2167 -76.8667 142° Southeast 214 246 2,700 -700 Descending Potomac TRACON
Sun 05:17:46 PM 39.1833 -76.8000 123° Southeast 191 220 2,200 -789 Descending Potomac TRACON
Sun 05:18:46 PM 39.1833 -76.7500 90° East 162 186 1,200 -1,000 Descending Potomac TRACON
Sun 05:20:00 PM 39.1667 -76.6667 270° West  Level FlightAware Approximate
Sun 05:27:00 PM 39.1754 -76.6683 270° West  Level Estimated
Sun 05:28:00 PM 39.1754 -76.6683 270° West  Level Estimated
Sun 05:29:00 PM 39.1754 -76.6683 270° West  Level Estimated

Login

Don't have an account? Register now (free) for customized features, flight alerts, and more!